Arispe, Iowa
Current Conditions -  °F | °C
As of 6:55 PM on Monday 24 Nov 2014 (Local Time) from KCSQ Reporting Station
Clear Clear  
Wind Chill: 14°   Ceiling: Unl
Heat Index: 27°   Visibility: 10mi
Dew Point: 19°   Wind: 17mph
Humidity: 74%   Direction: 310°NW
Pressure: 29.9"   Gusts: NA
Location:  40.95°N, 94.22°W
Report Text: KCSQ 250055Z AUTO 31015KT 10SM CLR M03/M07 A2990 RMK AO2
Loading
Personal Weather Stations






























Interactive Weather Map New forecast layout! Learn more

10-Day Weather Forecast

Advertisements
Track Severe Weather on mobile